createdAt,value
2023-04-18T00:00:27.138Z,11.02
2023-04-18T00:02:55.145Z,10.65
2023-04-18T00:05:22.002Z,11.38
2023-04-18T00:07:48.576Z,10.77
2023-04-18T00:10:16.588Z,11.15
2023-04-18T00:12:43.063Z,11.43
2023-04-18T00:15:10.365Z,11.63
2023-04-18T00:17:40.237Z,10.30
2023-04-18T00:20:10.391Z,9.95
2023-04-18T00:22:42.289Z,8.68
2023-04-18T00:25:10.287Z,9.95
2023-04-18T00:27:38.428Z,9.93
2023-04-18T00:30:06.209Z,9.57
2023-04-18T00:32:32.682Z,9.20
2023-04-18T00:34:59.117Z,9.93
2023-04-18T00:37:25.734Z,9.10
2023-04-18T00:39:53.826Z,8.73
2023-04-18T00:42:21.707Z,8.20
2023-04-18T00:44:48.819Z,9.23
2023-04-18T00:47:17.210Z,7.57
2023-04-18T00:49:44.612Z,8.55
2023-04-18T00:52:12.082Z,8.15
2023-04-18T00:54:40.004Z,7.60
2023-04-18T00:57:06.522Z,8.20
2023-04-18T00:59:36.014Z,7.50
2023-04-18T01:02:03.833Z,8.25
2023-04-18T01:04:32.037Z,7.35
2023-04-18T01:06:58.929Z,7.20
2023-04-18T01:09:25.709Z,7.20
2023-04-18T01:11:52.105Z,7.10
2023-04-18T01:14:19.547Z,7.68
2023-04-18T01:16:46.295Z,6.90
2023-04-18T01:19:19.023Z,7.30
2023-04-18T01:21:45.569Z,7.13
2023-04-18T01:24:16.166Z,7.43
2023-04-18T01:26:45.385Z,7.50
2023-04-18T01:29:11.908Z,7.80
2023-04-18T01:31:39.953Z,8.05
2023-04-18T01:34:07.216Z,7.07
2023-04-18T01:36:35.181Z,7.00
2023-04-18T01:39:01.597Z,7.22
2023-04-18T01:41:29.729Z,7.82
2023-04-18T01:43:56.196Z,7.07
2023-04-18T01:46:22.692Z,7.53
2023-04-18T01:48:49.149Z,7.28
2023-04-18T01:51:15.682Z,7.53
2023-04-18T01:53:42.227Z,6.88
2023-04-18T01:56:10.076Z,7.18
2023-04-18T01:58:37.266Z,7.03
2023-04-18T02:01:04.048Z,7.00
2023-04-18T02:03:30.963Z,7.80
2023-04-18T02:05:57.579Z,7.07
2023-04-18T02:08:24.024Z,7.03
2023-04-18T02:10:50.479Z,7.95
2023-04-18T02:13:16.876Z,7.32
2023-04-18T02:15:46.468Z,7.38
2023-04-18T02:18:12.849Z,6.95
2023-04-18T02:20:39.884Z,7.40
2023-04-18T02:23:06.739Z,7.38
2023-04-18T02:25:33.344Z,7.30
2023-04-18T02:27:59.894Z,6.93
2023-04-18T02:30:26.443Z,7.70
2023-04-18T02:32:54.110Z,7.95
2023-04-18T02:35:20.955Z,7.78
2023-04-18T02:37:47.309Z,8.23
2023-04-18T02:40:13.845Z,8.07
2023-04-18T02:42:40.259Z,7.63
2023-04-18T02:45:07.651Z,7.90
2023-04-18T02:47:43.800Z,8.68
2023-04-18T02:50:18.033Z,8.30
2023-04-18T02:52:44.518Z,8.25
2023-04-18T02:55:10.932Z,8.15
2023-04-18T02:57:37.320Z,8.95
2023-04-18T03:00:04.593Z,8.57
2023-04-18T03:02:31.066Z,8.57
2023-04-18T03:04:57.517Z,8.63
2023-04-18T03:07:23.944Z,8.63
2023-04-18T03:09:50.548Z,9.60
2023-04-18T03:12:16.922Z,9.25
2023-04-18T03:14:44.491Z,9.20
2023-04-18T03:17:11.289Z,8.90
2023-04-18T03:19:37.758Z,10.05
2023-04-18T03:22:04.129Z,9.68
2023-04-18T03:24:30.782Z,9.98
2023-04-18T03:26:57.809Z,9.52
2023-04-18T03:29:24.222Z,9.95
2023-04-18T03:31:50.699Z,9.70
2023-04-18T03:34:17.091Z,10.90
2023-04-18T03:36:44.513Z,10.30
2023-04-18T03:39:11.752Z,10.30
2023-04-18T03:41:38.115Z,10.40
2023-04-18T03:44:04.716Z,11.10
2023-04-18T03:46:31.161Z,10.25
2023-04-18T03:48:57.573Z,10.45
2023-04-18T03:51:23.932Z,11.18
2023-04-18T03:53:50.293Z,11.48
2023-04-18T03:56:16.711Z,12.57
2023-04-18T03:58:43.100Z,12.02
2023-04-18T04:01:09.463Z,11.70
2023-04-18T04:03:35.948Z,12.63
2023-04-18T04:06:02.444Z,12.30
2023-04-18T04:08:28.955Z,12.95
2023-04-18T04:10:55.449Z,12.07
2023-04-18T04:13:21.826Z,12.25
2023-04-18T04:15:48.228Z,12.18
2023-04-18T04:18:14.618Z,11.10
2023-04-18T04:20:40.996Z,12.35
2023-04-18T04:23:07.425Z,11.75
2023-04-18T04:25:34.066Z,11.20
2023-04-18T04:28:01.443Z,11.50
2023-04-18T04:30:28.540Z,11.20
2023-04-18T04:32:55.116Z,11.07
2023-04-18T04:35:21.631Z,11.48
2023-04-18T04:37:48.152Z,12.15
2023-04-18T04:40:15.603Z,10.90
2023-04-18T04:42:42.268Z,11.60
2023-04-18T04:45:09.509Z,12.18
2023-04-18T04:47:36.566Z,12.23
2023-04-18T04:50:04.243Z,11.27
2023-04-18T04:52:32.666Z,11.55
2023-04-18T04:54:59.159Z,10.48
2023-04-18T04:57:25.887Z,10.88
2023-04-18T04:59:52.304Z,11.38
2023-04-18T05:02:18.800Z,10.25
2023-04-18T05:04:45.273Z,11.07
2023-04-18T05:07:11.693Z,11.13
2023-04-18T05:09:38.093Z,10.20
2023-04-18T05:12:04.957Z,11.23
2023-04-18T05:14:31.427Z,12.32
2023-04-18T05:16:57.806Z,10.75
2023-04-18T05:19:24.343Z,10.10
2023-04-18T05:21:50.894Z,11.18
2023-04-18T05:24:17.386Z,11.27
2023-04-18T05:26:43.810Z,11.88
2023-04-18T05:29:10.247Z,10.90
2023-04-18T05:31:36.687Z,10.85
2023-04-18T05:34:03.118Z,11.30
2023-04-18T05:36:29.538Z,9.98
2023-04-18T05:38:56.165Z,11.27
2023-04-18T05:41:22.936Z,12.13
2023-04-18T05:44:01.803Z,11.43
2023-04-18T05:46:31.692Z,11.40
2023-04-18T05:48:58.213Z,12.73
2023-04-18T05:51:24.666Z,11.57
2023-04-18T05:53:51.055Z,11.07
2023-04-18T05:56:17.420Z,12.45
2023-04-18T05:58:45.497Z,13.15
2023-04-18T06:01:14.143Z,12.55
2023-04-18T06:03:41.429Z,12.27
2023-04-18T06:06:08.065Z,11.27
2023-04-18T06:08:34.444Z,12.73
2023-04-18T06:11:00.944Z,13.07
2023-04-18T06:13:27.314Z,13.65
2023-04-18T06:15:53.730Z,13.43
2023-04-18T06:18:20.266Z,13.43
2023-04-18T06:20:47.734Z,14.40
2023-04-18T06:23:14.121Z,15.00
2023-04-18T06:25:43.572Z,13.73
2023-04-18T06:28:09.986Z,14.32
2023-04-18T06:30:36.572Z,15.40
2023-04-18T06:33:03.256Z,16.27
2023-04-18T06:35:30.808Z,15.75
2023-04-18T06:37:57.213Z,15.88
2023-04-18T06:40:23.583Z,16.52
2023-04-18T06:42:49.965Z,15.73
2023-04-18T06:45:16.444Z,17.23
2023-04-18T06:47:42.962Z,16.98
2023-04-18T06:50:09.637Z,16.20
2023-04-18T06:52:40.429Z,15.98
2023-04-18T06:55:07.736Z,15.90
2023-04-18T06:57:34.129Z,15.45
2023-04-18T07:00:00.517Z,16.10
2023-04-18T07:02:26.914Z,15.40
2023-04-18T07:04:53.436Z,16.30
2023-04-18T07:07:20.351Z,15.90
2023-04-18T07:09:46.739Z,16.30
2023-04-18T07:12:13.109Z,15.80
2023-04-18T07:14:39.487Z,15.70
2023-04-18T07:17:06.121Z,15.60
2023-04-18T07:19:32.636Z,16.48
2023-04-18T07:21:59.055Z,15.40
2023-04-18T07:24:25.599Z,15.90
2023-04-18T07:26:54.422Z,15.43
2023-04-18T07:29:21.450Z,13.80
2023-04-18T07:31:48.121Z,13.75
2023-04-18T07:34:15.026Z,15.48
2023-04-18T07:36:41.864Z,15.25
2023-04-18T07:39:08.654Z,15.15
2023-04-18T07:41:35.614Z,14.63
2023-04-18T07:44:02.305Z,15.13
2023-04-18T07:46:29.136Z,13.32
2023-04-18T07:48:55.666Z,15.13
2023-04-18T07:51:25.289Z,13.75
2023-04-18T07:53:51.777Z,14.90
2023-04-18T07:56:18.626Z,15.50
2023-04-18T07:58:45.501Z,13.98
2023-04-18T08:01:15.099Z,13.80
2023-04-18T08:03:41.774Z,14.52
2023-04-18T08:06:08.448Z,14.73
2023-04-18T08:08:34.852Z,15.57
2023-04-18T08:11:01.740Z,14.55
2023-04-18T08:13:28.279Z,13.20
2023-04-18T08:15:55.791Z,14.50
2023-04-18T08:18:23.094Z,15.45
2023-04-18T08:20:49.477Z,13.77
2023-04-18T08:23:16.141Z,14.20
2023-04-18T08:25:42.901Z,14.48
2023-04-18T08:28:09.532Z,14.43
2023-04-18T08:30:36.333Z,14.43
2023-04-18T08:33:02.831Z,14.82
2023-04-18T08:35:29.358Z,13.60
2023-04-18T08:37:55.723Z,14.73
2023-04-18T08:40:22.272Z,15.30
2023-04-18T08:42:49.084Z,15.80
2023-04-18T08:45:15.511Z,18.80
2023-04-18T08:47:42.425Z,18.40
2023-04-18T08:50:09.863Z,16.70
2023-04-18T08:52:37.744Z,16.00
2023-04-18T08:55:04.576Z,17.10
2023-04-18T08:57:31.351Z,16.30
2023-04-18T08:59:57.847Z,16.08
2023-04-18T09:02:45.009Z,16.85
2023-04-18T09:05:14.144Z,16.60
2023-04-18T09:07:41.026Z,17.75
2023-04-18T09:10:08.049Z,19.60
2023-04-18T09:12:42.370Z,17.98
2023-04-18T09:15:16.726Z,17.92
2023-04-18T09:17:53.927Z,17.33
2023-04-18T09:20:35.879Z,18.42
2023-04-18T09:23:11.169Z,17.25
2023-04-18T09:25:49.164Z,16.30
2023-04-18T09:28:29.047Z,18.23
2023-04-18T09:31:11.822Z,17.15
2023-04-18T09:33:41.133Z,16.60
2023-04-18T09:36:21.773Z,16.73
2023-04-18T09:38:49.884Z,16.67
2023-04-18T09:41:19.933Z,17.20
2023-04-18T09:43:47.780Z,16.00
2023-04-18T09:46:14.773Z,16.02
2023-04-18T09:48:41.760Z,14.95
2023-04-18T09:51:11.006Z,15.73
2023-04-18T09:53:39.537Z,16.42
2023-04-18T09:56:14.698Z,16.70
2023-04-18T09:58:42.336Z,16.73
2023-04-18T10:01:09.060Z,16.63
2023-04-18T10:03:42.391Z,16.95
2023-04-18T10:06:09.381Z,15.85
2023-04-18T10:08:35.781Z,16.02
2023-04-18T10:11:02.276Z,16.52
2023-04-18T10:13:29.200Z,17.02
2023-04-18T10:15:56.295Z,17.20
2023-04-18T10:18:24.275Z,15.70
2023-04-18T10:20:51.641Z,18.00
2023-04-18T10:23:34.718Z,16.85
2023-04-18T10:26:02.133Z,17.23
2023-04-18T10:28:56.821Z,18.00
2023-04-18T10:31:26.573Z,16.58
2023-04-18T10:36:28.657Z,18.25
2023-04-18T10:39:20.632Z,17.25
2023-04-18T10:41:54.137Z,18.92
2023-04-18T10:44:23.852Z,18.20
2023-04-18T10:46:50.828Z,16.50
2023-04-18T10:49:19.919Z,18.58
2023-04-18T10:51:54.253Z,18.98
2023-04-18T10:54:40.990Z,20.10
2023-04-18T10:57:08.924Z,20.38
2023-04-18T10:59:38.258Z,18.98
2023-04-18T11:02:32.384Z,19.65
2023-04-18T11:05:01.195Z,20.02
2023-04-18T11:07:37.459Z,20.00
2023-04-18T11:10:05.532Z,25.27
2023-04-18T11:12:35.382Z,21.50
2023-04-18T11:15:09.277Z,17.80
2023-04-18T11:17:36.146Z,19.35
2023-04-18T11:20:14.118Z,19.70
2023-04-18T11:22:56.866Z,19.38
2023-04-18T11:25:32.040Z,21.08
2023-04-18T11:27:59.959Z,17.98
2023-04-18T11:30:26.453Z,19.33
2023-04-18T11:32:54.084Z,18.02
2023-04-18T11:35:20.528Z,18.42
2023-04-18T11:37:47.260Z,19.90
2023-04-18T11:40:14.218Z,20.33
2023-04-18T11:42:41.276Z,17.48
2023-04-18T11:45:15.022Z,18.38
2023-04-18T11:47:42.958Z,19.02
2023-04-18T11:50:11.240Z,19.23
2023-04-18T11:52:41.269Z,20.38
2023-04-18T11:55:17.712Z,19.25
2023-04-18T11:57:55.525Z,18.67
2023-04-18T12:00:35.814Z,17.33
2023-04-18T12:03:07.987Z,19.45
2023-04-18T12:05:37.157Z,17.23
2023-04-18T12:08:07.983Z,19.17
2023-04-18T12:10:35.802Z,17.02
2023-04-18T12:13:06.643Z,14.98
2023-04-18T12:15:33.639Z,15.77
2023-04-18T12:18:03.795Z,17.48
2023-04-18T12:20:36.769Z,16.70
2023-04-18T12:23:03.531Z,15.45
2023-04-18T12:25:30.625Z,17.00
2023-04-18T12:28:02.213Z,16.42
2023-04-18T12:30:29.800Z,16.40
2023-04-18T12:32:58.824Z,16.75
2023-04-18T12:35:26.166Z,16.85
2023-04-18T12:37:54.226Z,17.35
2023-04-18T12:40:21.865Z,17.30
2023-04-18T12:42:49.365Z,17.35
2023-04-18T12:45:17.347Z,17.40
2023-04-18T12:47:45.809Z,17.05
2023-04-18T12:50:16.117Z,17.08
2023-04-18T12:52:42.605Z,17.65
2023-04-18T12:55:09.620Z,16.65
2023-04-18T12:57:36.285Z,17.15
2023-04-18T13:00:06.329Z,16.75
2023-04-18T13:02:37.137Z,17.42
2023-04-18T13:05:05.429Z,16.30
2023-04-18T13:07:31.896Z,15.32
2023-04-18T13:09:58.352Z,14.27
2023-04-18T13:12:24.762Z,14.68
2023-04-18T13:14:51.149Z,17.30
2023-04-18T13:17:17.623Z,15.25
2023-04-18T13:19:43.995Z,16.10
2023-04-18T13:22:10.483Z,16.85
2023-04-18T13:24:37.023Z,17.52
2023-04-18T13:27:10.100Z,16.45
2023-04-18T13:29:38.412Z,16.98
2023-04-18T13:32:06.005Z,17.58
2023-04-18T13:34:36.165Z,22.15
2023-04-18T13:37:02.594Z,18.83
2023-04-18T13:39:31.745Z,18.30
2023-04-18T13:41:58.304Z,18.25
2023-04-18T13:44:27.561Z,17.75
2023-04-18T13:46:54.059Z,19.10
2023-04-18T13:49:20.515Z,17.45
2023-04-18T13:51:46.942Z,17.63
2023-04-18T13:54:15.411Z,18.15
2023-04-18T13:56:43.101Z,19.00
2023-04-18T13:59:09.483Z,18.05
2023-04-18T14:01:35.890Z,16.80
2023-04-18T14:04:03.182Z,16.30
2023-04-18T14:06:30.395Z,16.27
2023-04-18T14:08:56.771Z,16.67
2023-04-18T14:11:23.209Z,17.05
2023-04-18T14:13:49.708Z,15.55
2023-04-18T14:16:16.375Z,16.73
2023-04-18T14:18:42.864Z,15.90
2023-04-18T14:21:09.265Z,16.90
2023-04-18T14:23:35.912Z,16.35
2023-04-18T14:26:02.378Z,16.45
2023-04-18T14:28:28.791Z,16.10
2023-04-18T14:30:59.814Z,16.77
2023-04-18T14:33:26.183Z,16.45
2023-04-18T14:35:52.732Z,17.35
2023-04-18T14:38:19.483Z,15.93
2023-04-18T14:40:46.659Z,15.77
2023-04-18T14:43:13.017Z,14.88
2023-04-18T14:45:39.402Z,15.25
2023-04-18T14:48:07.909Z,16.35
2023-04-18T14:50:36.174Z,14.02
2023-04-18T14:53:03.195Z,16.38
2023-04-18T14:55:29.574Z,15.32
2023-04-18T14:57:56.060Z,14.70
2023-04-18T15:00:22.629Z,14.02
2023-04-18T15:02:49.303Z,14.23
2023-04-18T15:05:17.649Z,14.65
2023-04-18T15:07:44.993Z,15.45
2023-04-18T15:10:15.084Z,15.80
2023-04-18T15:12:44.365Z,13.88
2023-04-18T15:15:11.000Z,12.77
2023-04-18T15:17:37.398Z,13.80
2023-04-18T15:20:06.947Z,12.77
2023-04-18T15:22:34.033Z,13.02
2023-04-18T15:25:00.465Z,12.98
2023-04-18T15:27:26.886Z,12.35
2023-04-18T15:29:53.458Z,12.60
2023-04-18T15:32:19.922Z,13.50
2023-04-18T15:34:46.499Z,13.32
2023-04-18T15:37:12.892Z,12.57
2023-04-18T15:39:39.321Z,12.57
2023-04-18T15:42:05.776Z,13.05
2023-04-18T15:44:32.220Z,12.85
2023-04-18T15:47:00.984Z,12.90
2023-04-18T15:49:27.608Z,12.45
2023-04-18T15:51:53.981Z,13.07
2023-04-18T15:54:20.598Z,11.88
2023-04-18T15:56:46.988Z,12.60
2023-04-18T15:59:13.516Z,12.43
2023-04-18T16:01:40.556Z,12.13
2023-04-18T16:04:07.205Z,12.90
2023-04-18T16:06:33.624Z,12.25
2023-04-18T16:09:00.575Z,11.75
2023-04-18T16:11:27.521Z,12.27
2023-04-18T16:13:55.906Z,11.57
2023-04-18T16:16:22.363Z,12.52
2023-04-18T16:18:48.751Z,12.25
2023-04-18T16:21:15.757Z,12.80
2023-04-18T16:23:42.609Z,13.80
2023-04-18T16:26:09.072Z,13.55
2023-04-18T16:28:38.288Z,13.70
2023-04-18T16:31:05.971Z,13.20
2023-04-18T16:33:32.570Z,13.45
2023-04-18T16:36:00.392Z,13.70
2023-04-18T16:38:27.339Z,13.80
2023-04-18T16:41:01.554Z,12.65
2023-04-18T16:43:28.453Z,12.75
2023-04-18T16:45:58.093Z,13.52
2023-04-18T16:48:24.748Z,14.32
2023-04-18T16:50:51.433Z,13.23
2023-04-18T16:53:17.865Z,15.18
2023-04-18T16:55:44.305Z,15.00
2023-04-18T16:58:11.120Z,13.45
2023-04-18T17:00:38.530Z,16.88
2023-04-18T17:03:07.226Z,14.30
2023-04-18T17:05:33.765Z,13.65
2023-04-18T17:08:00.354Z,13.48
2023-04-18T17:10:29.001Z,14.60
2023-04-18T17:12:55.451Z,17.85
2023-04-18T17:15:22.036Z,14.77
2023-04-18T17:17:48.441Z,14.95
2023-04-18T17:20:15.949Z,23.67
2023-04-18T17:22:42.378Z,13.88
2023-04-18T17:25:09.262Z,15.23
2023-04-18T17:27:35.675Z,14.93
2023-04-18T17:30:02.082Z,15.07
2023-04-18T17:32:28.535Z,14.63
2023-04-18T17:34:55.659Z,13.60
2023-04-18T17:37:22.359Z,13.70
2023-04-18T17:39:49.257Z,14.13
2023-04-18T17:42:15.801Z,14.38
2023-04-18T17:44:42.263Z,15.05
2023-04-18T17:47:08.705Z,16.10
2023-04-18T17:49:35.927Z,14.55
2023-04-18T17:52:03.186Z,13.75
2023-04-18T17:54:29.888Z,13.90
2023-04-18T17:56:57.638Z,13.90
2023-04-18T17:59:24.045Z,14.30
2023-04-18T18:01:50.774Z,15.20
2023-04-18T18:04:17.385Z,16.98
2023-04-18T18:06:53.724Z,14.45
2023-04-18T18:09:20.146Z,14.38
2023-04-18T18:11:46.539Z,13.93
2023-04-18T18:14:13.343Z,14.23
2023-04-18T18:16:39.765Z,14.70
2023-04-18T18:19:09.160Z,14.50
2023-04-18T18:21:36.319Z,15.63
2023-04-18T18:24:02.738Z,14.75
2023-04-18T18:26:29.178Z,14.15
2023-04-18T18:28:55.751Z,14.68
2023-04-18T18:31:24.698Z,14.50
2023-04-18T18:33:52.211Z,15.07
2023-04-18T18:36:18.583Z,13.93
2023-04-18T18:38:44.972Z,14.93
2023-04-18T18:41:11.416Z,14.85
2023-04-18T18:43:37.895Z,15.55
2023-04-18T18:46:04.418Z,15.40
2023-04-18T18:48:32.643Z,14.70
2023-04-18T18:50:59.154Z,15.88
2023-04-18T18:53:25.791Z,14.85
2023-04-18T18:55:52.267Z,15.13
2023-04-18T18:58:18.737Z,15.07
2023-04-18T19:00:46.773Z,15.35
2023-04-18T19:03:13.351Z,16.67
2023-04-18T19:05:39.964Z,15.10
2023-04-18T19:08:06.679Z,15.45
2023-04-18T19:10:33.187Z,16.52
2023-04-18T19:13:00.308Z,15.10
2023-04-18T19:15:26.854Z,15.70
2023-04-18T19:17:53.271Z,15.57
2023-04-18T19:20:19.788Z,15.43
2023-04-18T19:22:46.181Z,15.63
2023-04-18T19:25:12.577Z,15.50
2023-04-18T19:27:38.983Z,16.45
2023-04-18T19:30:06.053Z,16.23
2023-04-18T19:32:32.549Z,15.57
2023-04-18T19:34:59.554Z,15.55
2023-04-18T19:37:25.953Z,15.80
2023-04-18T19:39:52.336Z,16.27
2023-04-18T19:42:19.015Z,15.05
2023-04-18T19:44:45.510Z,14.63
2023-04-18T19:47:11.910Z,14.68
2023-04-18T19:49:39.248Z,15.68
2023-04-18T19:52:06.116Z,15.75
2023-04-18T19:54:35.707Z,15.35
2023-04-18T19:57:02.647Z,16.45
2023-04-18T19:59:29.135Z,14.88
2023-04-18T20:01:56.332Z,16.33
2023-04-18T20:04:25.623Z,16.45
2023-04-18T20:06:53.402Z,16.23
2023-04-18T20:09:19.935Z,18.08
2023-04-18T20:11:47.607Z,17.58
2023-04-18T20:14:13.999Z,15.63
2023-04-18T20:16:42.596Z,18.50
2023-04-18T20:19:12.373Z,21.30
2023-04-18T20:21:39.248Z,15.52
2023-04-18T20:24:06.740Z,15.85
2023-04-18T20:26:33.100Z,16.83
2023-04-18T20:28:59.761Z,15.43
2023-04-18T20:31:26.402Z,15.68
2023-04-18T20:33:53.228Z,15.80
2023-04-18T20:36:19.965Z,16.35
2023-04-18T20:38:46.657Z,18.05
2023-04-18T20:41:14.657Z,16.92
2023-04-18T20:43:42.875Z,16.77
2023-04-18T20:46:12.697Z,15.13
2023-04-18T20:48:39.837Z,15.80
2023-04-18T20:51:06.235Z,16.00
2023-04-18T20:53:32.732Z,16.10
2023-04-18T20:56:01.715Z,16.58
2023-04-18T20:58:28.101Z,16.42
2023-04-18T21:00:54.487Z,15.00
2023-04-18T21:03:20.946Z,16.63
2023-04-18T21:05:47.394Z,15.35
2023-04-18T21:08:13.965Z,15.13
2023-04-18T21:10:40.437Z,15.05
2023-04-18T21:13:07.011Z,15.32
2023-04-18T21:15:35.120Z,16.33
2023-04-18T21:18:01.537Z,16.15
2023-04-18T21:20:27.959Z,15.93
2023-04-18T21:22:54.320Z,15.82
2023-04-18T21:25:21.277Z,15.63
2023-04-18T21:27:47.776Z,15.75
2023-04-18T21:30:14.189Z,17.30
2023-04-18T21:32:40.567Z,15.77
2023-04-18T21:35:07.142Z,16.13
2023-04-18T21:37:33.524Z,15.40
2023-04-18T21:40:00.452Z,15.15
2023-04-18T21:42:26.955Z,16.15
2023-04-18T21:44:54.743Z,16.60
2023-04-18T21:47:21.201Z,16.98
2023-04-18T21:49:47.885Z,17.00
2023-04-18T21:52:14.350Z,15.52
2023-04-18T21:54:41.761Z,15.68
2023-04-18T21:57:08.191Z,15.05
2023-04-18T21:59:34.578Z,15.35
2023-04-18T22:02:01.070Z,16.77
2023-04-18T22:04:27.634Z,17.05
2023-04-18T22:06:54.417Z,17.20
2023-04-18T22:09:21.712Z,16.23
2023-04-18T22:11:48.374Z,16.67
2023-04-18T22:14:15.064Z,15.85
2023-04-18T22:16:42.242Z,17.58
2023-04-18T22:19:09.016Z,17.05
2023-04-18T22:21:35.429Z,17.05
2023-04-18T22:24:01.855Z,17.88
2023-04-18T22:26:28.271Z,17.77
2023-04-18T22:28:54.692Z,18.33
2023-04-18T22:31:21.151Z,16.08
2023-04-18T22:33:47.615Z,16.63
2023-04-18T22:36:14.042Z,17.10
2023-04-18T22:38:40.430Z,17.55
2023-04-18T22:41:07.791Z,16.55
2023-04-18T22:43:34.238Z,18.35
2023-04-18T22:46:00.830Z,16.50
2023-04-18T22:48:27.279Z,18.20
2023-04-18T22:50:54.193Z,17.50
2023-04-18T22:53:20.586Z,17.75
2023-04-18T22:55:46.972Z,16.80
2023-04-18T22:58:13.552Z,17.25
2023-04-18T23:00:40.006Z,16.38
2023-04-18T23:03:06.562Z,18.02
2023-04-18T23:05:34.177Z,18.33
2023-04-18T23:08:00.792Z,18.50
2023-04-18T23:10:27.400Z,17.95
2023-04-18T23:12:53.905Z,17.77
2023-04-18T23:15:22.665Z,17.20
2023-04-18T23:17:51.791Z,16.42
2023-04-18T23:20:18.551Z,17.30
2023-04-18T23:22:45.054Z,16.80
2023-04-18T23:25:11.681Z,16.85
2023-04-18T23:27:38.118Z,16.63
2023-04-18T23:30:04.900Z,16.10
2023-04-18T23:32:31.319Z,17.55
2023-04-18T23:34:57.810Z,17.17
2023-04-18T23:37:24.201Z,17.33
2023-04-18T23:39:50.601Z,17.25
2023-04-18T23:42:17.019Z,17.15
2023-04-18T23:44:43.417Z,17.38
2023-04-18T23:47:09.870Z,18.73
2023-04-18T23:49:36.280Z,17.30
2023-04-18T23:52:03.546Z,19.13
2023-04-18T23:54:29.930Z,18.92
2023-04-18T23:56:57.042Z,17.55
2023-04-18T23:59:23.452Z,18.90
